Time;durP1;ratioP1;P1;durP2;ratioP2;P2;SDS_P1;SDS_P2;PMS_P1;PMS_P2;Temp;Humidity;BMP_temperature;BMP_pressure;BME280_temperature;BME280_humidity;BME280_pressure;Samples;Min_cycle;Max_cycle;Signal;HPM_P1;HPM_P2
2024/04/14 00:01:22;;;;;;;1.33;0.40;;;18.50;87.00;;;;;;5442895;26;20071;-66
2024/04/14 00:03:54;;;;;;;1.60;0.40;;;18.50;87.30;;;;;;5444092;26;20010;-66
2024/04/14 00:06:22;;;;;;;2.97;0.40;;;18.40;87.50;;;;;;5449774;26;20014;-67
2024/04/14 00:08:48;;;;;;;2.05;0.30;;;18.40;87.60;;;;;;5453134;26;20030;-67
2024/04/14 00:11:14;;;;;;;2.75;0.35;;;18.40;87.70;;;;;;5464732;26;19996;-67
2024/04/14 00:13:40;;;;;;;2.33;0.40;;;18.30;88.00;;;;;;5443041;26;20437;-66
2024/04/14 00:16:05;;;;;;;1.63;0.20;;;18.30;88.10;;;;;;5448288;26;20366;-67
2024/04/14 00:18:31;;;;;;;2.22;0.30;;;18.20;88.10;;;;;;5444164;26;20013;-65
2024/04/14 00:20:56;;;;;;;3.42;0.38;;;18.20;88.40;;;;;;5397236;26;19999;-67
2024/04/14 00:23:22;;;;;;;3.38;0.47;;;18.10;88.70;;;;;;5399313;26;20023;-66
2024/04/14 00:25:48;;;;;;;1.77;0.40;;;18.00;89.00;;;;;;5416730;26;20549;-66
2024/04/14 00:28:20;;;;;;;3.33;0.45;;;18.00;89.10;;;;;;5423964;26;19995;-66
2024/04/14 00:30:45;;;;;;;0.85;0.25;;;18.00;89.20;;;;;;5448575;26;19995;-66
2024/04/14 00:33:11;;;;;;;2.47;0.30;;;18.00;89.20;;;;;;5446965;26;19998;-66
2024/04/14 00:35:37;;;;;;;4.40;0.30;;;18.00;89.50;;;;;;5471502;26;19998;-66
2024/04/14 00:38:03;;;;;;;2.38;0.30;;;17.90;89.40;;;;;;5447803;26;20024;-64
2024/04/14 00:40:28;;;;;;;0.98;0.20;;;17.90;89.70;;;;;;5448491;26;19995;-66
2024/04/14 00:42:58;;;;;;;1.90;0.40;;;17.90;89.90;;;;;;5450918;26;20017;-66
2024/04/14 00:45:26;;;;;;;1.58;0.20;;;17.90;89.80;;;;;;5455300;26;20011;-66
2024/04/14 00:47:58;;;;;;;4.22;0.43;;;17.90;89.80;;;;;;5462729;26;20008;-66
2024/04/14 00:50:25;;;;;;;3.42;0.43;;;17.90;89.80;;;;;;5443119;26;20003;-65
2024/04/14 00:52:51;;;;;;;1.90;0.30;;;17.90;89.90;;;;;;5459203;26;20011;-65
2024/04/14 00:55:19;;;;;;;3.03;0.32;;;17.90;90.00;;;;;;5438001;26;20005;-66
2024/04/14 00:57:45;;;;;;;1.77;0.22;;;17.90;90.00;;;;;;5367880;26;20065;-65
2024/04/14 01:00:12;;;;;;;2.05;0.28;;;17.90;90.00;;;;;;5390239;26;19999;-66
2024/04/14 01:02:38;;;;;;;2.20;0.40;;;18.00;90.00;;;;;;5395397;26;20011;-66
2024/04/14 01:05:04;;;;;;;1.95;0.30;;;18.00;89.90;;;;;;5413592;26;20068;-64
2024/04/14 01:07:31;;;;;;;1.38;0.22;;;18.00;89.90;;;;;;5423840;26;20307;-63
2024/04/14 01:09:58;;;;;;;1.42;0.30;;;18.00;89.70;;;;;;5356332;26;20001;-65
2024/04/14 01:12:23;;;;;;;1.05;0.25;;;18.00;89.90;;;;;;5403156;26;20560;-67
2024/04/14 01:14:50;;;;;;;3.15;0.22;;;18.00;89.80;;;;;;5364895;26;20123;-66
2024/04/14 01:17:22;;;;;;;2.83;0.30;;;18.00;89.90;;;;;;5418134;26;20014;-66
2024/04/14 01:19:48;;;;;;;3.70;0.45;;;18.00;89.90;;;;;;5446274;26;19998;-65
2024/04/14 01:22:14;;;;;;;1.95;0.40;;;17.90;90.00;;;;;;5438486;26;20010;-66
2024/04/14 01:24:39;;;;;;;1.75;0.35;;;18.00;90.00;;;;;;5436117;26;20012;-66
2024/04/14 01:27:05;;;;;;;1.63;0.40;;;17.90;90.00;;;;;;5452279;26;20005;-66
2024/04/14 01:29:31;;;;;;;1.80;0.30;;;18.00;90.10;;;;;;5440650;26;20017;-65
2024/04/14 01:31:56;;;;;;;1.70;0.40;;;18.00;90.00;;;;;;5436129;26;20009;-64
2024/04/14 01:34:22;;;;;;;1.95;0.30;;;18.00;89.90;;;;;;5438636;26;19999;-64
2024/04/14 01:36:47;;;;;;;1.77;0.30;;;18.00;90.00;;;;;;5442932;26;20015;-66
2024/04/14 01:39:13;;;;;;;1.52;0.40;;;18.00;89.90;;;;;;5445982;26;20717;-66
2024/04/14 01:41:39;;;;;;;4.32;0.50;;;18.00;89.90;;;;;;5441498;26;20017;-65
2024/04/14 01:44:04;;;;;;;1.55;0.35;;;18.00;89.80;;;;;;5440803;26;19999;-66
2024/04/14 01:46:30;;;;;;;1.27;0.30;;;18.10;89.80;;;;;;5441996;26;19999;-66
2024/04/14 01:48:55;;;;;;;4.10;0.30;;;18.00;89.70;;;;;;5412407;26;20523;-66
2024/04/14 01:51:21;;;;;;;1.17;0.15;;;17.90;90.00;;;;;;5459147;26;20577;-65
2024/04/14 01:53:47;;;;;;;2.78;0.40;;;17.90;90.00;;;;;;5440543;26;20009;-66
2024/04/14 01:56:12;;;;;;;3.53;0.57;;;17.80;90.10;;;;;;5441326;26;20035;-65
2024/04/14 01:58:38;;;;;;;2.00;0.30;;;17.80;90.20;;;;;;5440977;26;20013;-65
2024/04/14 02:01:09;;;;;;;3.60;0.40;;;17.70;90.30;;;;;;5443020;26;19994;-61
2024/04/14 02:03:35;;;;;;;4.38;0.40;;;17.70;90.30;;;;;;5443421;26;19999;-66
2024/04/14 02:06:01;;;;;;;3.92;0.40;;;17.70;90.40;;;;;;5454430;26;20013;-66
2024/04/14 02:08:27;;;;;;;1.95;0.40;;;17.70;90.50;;;;;;5446364;26;20006;-64
2024/04/14 02:10:53;;;;;;;2.45;0.50;;;17.60;90.40;;;;;;5448423;26;20081;-66
2024/04/14 02:13:19;;;;;;;4.05;0.40;;;17.70;90.60;;;;;;5434850;26;20007;-66
2024/04/14 02:15:44;;;;;;;1.25;0.25;;;17.70;90.60;;;;;;5445865;26;20010;-65
2024/04/14 02:18:10;;;;;;;3.28;0.40;;;17.70;90.60;;;;;;5439006;26;19999;-66
2024/04/14 02:20:36;;;;;;;2.75;0.35;;;17.70;90.60;;;;;;5439311;26;19999;-66
2024/04/14 02:23:01;;;;;;;4.97;0.40;;;17.70;90.50;;;;;;5447577;26;20022;-66
2024/04/14 02:25:27;;;;;;;1.17;0.30;;;17.70;90.50;;;;;;5437651;26;20045;-65
2024/04/14 02:27:53;;;;;;;2.95;0.30;;;17.70;90.50;;;;;;5449883;26;19998;-65
2024/04/14 02:30:18;;;;;;;3.63;0.30;;;17.70;90.50;;;;;;5438980;26;20864;-65
2024/04/14 02:32:44;;;;;;;1.88;0.30;;;17.70;90.60;;;;;;5444844;26;20009;-65
2024/04/14 02:35:10;;;;;;;1.40;0.32;;;17.70;90.60;;;;;;5442186;26;20330;-66
2024/04/14 02:37:35;;;;;;;1.60;0.32;;;17.70;90.60;;;;;;5452976;26;20034;-65
2024/04/14 02:40:01;;;;;;;2.05;0.28;;;17.60;90.60;;;;;;5436753;26;20003;-65
2024/04/14 02:42:34;;;;;;;2.72;0.30;;;17.70;90.70;;;;;;5434633;26;20100;-66
2024/04/14 02:44:59;;;;;;;1.45;0.20;;;17.70;90.60;;;;;;5437112;26;20453;-66
2024/04/14 02:47:25;;;;;;;0.50;0.20;;;17.70;90.60;;;;;;5441715;26;19997;-65
2024/04/14 02:49:50;;;;;;;2.00;0.30;;;17.60;90.70;;;;;;5448481;26;20419;-65
2024/04/14 02:52:16;;;;;;;9.88;0.80;;;17.60;90.70;;;;;;5453669;26;19999;-65
2024/04/14 02:54:41;;;;;;;8.93;0.60;;;17.50;90.80;;;;;;5422082;26;20043;-65
2024/04/14 02:57:07;;;;;;;1.88;0.30;;;17.50;90.90;;;;;;5394734;26;20076;-67
2024/04/14 02:59:39;;;;;;;2.97;0.40;;;17.50;90.90;;;;;;5374509;26;20029;-66
2024/04/14 03:02:05;;;;;;;2.95;0.50;;;17.50;90.80;;;;;;5373832;26;19999;-65
2024/04/14 03:04:31;;;;;;;1.27;0.35;;;17.50;90.90;;;;;;5391748;26;19999;-66
2024/04/14 03:06:56;;;;;;;1.98;0.40;;;17.60;90.90;;;;;;5407806;26;20011;-66
2024/04/14 03:09:22;;;;;;;1.70;0.25;;;17.60;90.80;;;;;;5318479;26;20000;-67
2024/04/14 03:11:54;;;;;;;1.45;0.40;;;17.50;90.90;;;;;;5279801;26;20075;-66
2024/04/14 03:14:26;;;;;;;3.97;0.40;;;17.50;91.00;;;;;;5351019;26;19996;-64
2024/04/14 03:16:52;;;;;;;0.95;0.25;;;17.50;91.00;;;;;;5387141;26;20068;-66
2024/04/14 03:19:18;;;;;;;3.05;0.30;;;17.50;91.00;;;;;;5403938;26;20007;-66
2024/04/14 03:21:43;;;;;;;3.65;0.30;;;17.60;91.00;;;;;;5422026;26;20429;-66
2024/04/14 03:24:09;;;;;;;3.85;0.40;;;17.60;90.90;;;;;;5422110;26;20010;-65
2024/04/14 03:26:34;;;;;;;3.05;0.30;;;17.60;90.90;;;;;;5410849;26;20007;-65
2024/04/14 03:29:00;;;;;;;1.92;0.40;;;17.60;90.90;;;;;;5410030;26;20158;-66
2024/04/14 03:31:25;;;;;;;1.35;0.30;;;17.60;90.90;;;;;;5436946;26;19999;-67
2024/04/14 03:33:51;;;;;;;0.98;0.30;;;17.60;90.90;;;;;;5432956;26;20046;-66
2024/04/14 03:36:16;;;;;;;1.08;0.25;;;17.50;91.00;;;;;;5435728;26;20092;-67
2024/04/14 03:38:42;;;;;;;2.72;0.20;;;17.50;91.00;;;;;;5432935;26;20000;-67
2024/04/14 03:41:07;;;;;;;0.98;0.30;;;17.40;91.00;;;;;;5441613;26;20034;-66
2024/04/14 03:43:33;;;;;;;1.88;0.30;;;17.40;91.10;;;;;;5447459;26;20010;-66
2024/04/14 03:45:59;;;;;;;3.08;0.40;;;17.30;91.30;;;;;;5435080;26;20526;-66
2024/04/14 03:48:24;;;;;;;2.40;0.20;;;17.30;91.30;;;;;;5434907;26;20108;-67
2024/04/14 03:50:57;;;;;;;2.15;0.40;;;17.30;91.40;;;;;;5440023;26;20458;-67
2024/04/14 03:53:22;;;;;;;3.97;0.57;;;17.30;91.50;;;;;;5431030;26;20034;-67
2024/04/14 03:55:48;;;;;;;1.60;0.38;;;17.30;91.60;;;;;;5441006;26;19998;-66
2024/04/14 03:58:14;;;;;;;3.00;0.40;;;17.30;91.60;;;;;;5441525;26;20022;-67
2024/04/14 04:00:40;;;;;;;3.67;0.40;;;17.20;91.60;;;;;;5430299;26;20010;-65
2024/04/14 04:03:06;;;;;;;2.58;0.40;;;17.20;91.60;;;;;;5431417;26;19995;-67
2024/04/14 04:05:31;;;;;;;2.30;0.40;;;17.20;91.70;;;;;;5444911;26;20481;-67
2024/04/14 04:07:57;;;;;;;1.98;0.30;;;17.20;91.80;;;;;;5431988;26;20005;-67
2024/04/14 04:10:22;;;;;;;1.98;0.30;;;17.20;91.80;;;;;;5431259;26;20347;-66
2024/04/14 04:12:48;;;;;;;2.00;0.30;;;17.20;91.70;;;;;;5440785;26;19991;-67
2024/04/14 04:15:14;;;;;;;2.50;0.32;;;17.20;91.60;;;;;;5440849;26;19998;-66
2024/04/14 04:17:39;;;;;;;1.02;0.20;;;17.10;91.70;;;;;;5445575;26;20010;-66
2024/04/14 04:20:05;;;;;;;2.67;0.38;;;17.00;91.90;;;;;;5447275;26;19994;-67
2024/04/14 04:22:30;;;;;;;1.75;0.40;;;16.90;92.10;;;;;;5438934;26;20157;-67
2024/04/14 04:25:03;;;;;;;2.85;0.30;;;16.90;92.20;;;;;;5408377;26;20537;-67
2024/04/14 04:27:28;;;;;;;1.00;0.15;;;17.00;92.10;;;;;;5441286;26;20007;-68
2024/04/14 04:29:54;;;;;;;1.35;0.30;;;17.00;92.00;;;;;;5439503;26;20005;-67
2024/04/14 04:32:21;;;;;;;3.97;0.50;;;17.10;92.00;;;;;;5442259;26;20018;-66
2024/04/14 04:34:47;;;;;;;;;;;17.10;91.90;;;;;;5434892;26;20488;-67
2024/04/14 04:37:14;;;;;;;2.20;0.40;;;17.20;91.90;;;;;;5430577;26;19931;-67
2024/04/14 04:39:39;;;;;;;4.13;0.40;;;17.20;91.90;;;;;;5438521;26;19999;-66
2024/04/14 04:42:05;;;;;;;1.73;0.43;;;17.20;91.80;;;;;;5444418;26;20005;-66
2024/04/14 04:44:31;;;;;;;3.95;0.32;;;17.20;91.70;;;;;;5412726;26;20014;-66
2024/04/14 04:46:56;;;;;;;2.75;0.40;;;17.20;91.70;;;;;;5407768;26;20056;-67
2024/04/14 04:49:22;;;;;;;1.10;0.30;;;17.20;91.80;;;;;;5453159;26;20009;-66
2024/04/14 04:51:47;;;;;;;3.50;0.30;;;17.10;91.90;;;;;;5443338;26;20348;-67
2024/04/14 04:54:13;;;;;;;3.13;0.30;;;17.20;91.70;;;;;;5443469;26;20355;-66
2024/04/14 04:56:39;;;;;;;2.65;0.30;;;17.10;91.80;;;;;;5408642;26;20003;-67
2024/04/14 04:59:04;;;;;;;3.90;0.50;;;17.10;91.90;;;;;;5432762;26;20333;-67
2024/04/14 05:01:30;;;;;;;1.25;0.40;;;17.10;91.90;;;;;;5431751;26;19999;-67
2024/04/14 05:03:56;;;;;;;3.00;0.40;;;17.10;91.90;;;;;;5439402;26;20446;-66
2024/04/14 05:06:21;;;;;;;3.10;0.40;;;17.00;91.90;;;;;;5451649;26;20010;-67
2024/04/14 05:08:47;;;;;;;3.70;0.40;;;17.10;91.90;;;;;;5400653;26;20000;-67
2024/04/14 05:11:12;;;;;;;3.28;0.40;;;17.10;91.80;;;;;;5415113;26;20477;-67
2024/04/14 05:13:38;;;;;;;2.70;0.30;;;17.10;91.90;;;;;;5436306;26;20009;-67
2024/04/14 05:16:10;;;;;;;3.28;0.45;;;17.10;91.50;;;;;;5439692;26;20403;-67
2024/04/14 05:18:36;;;;;;;2.90;0.30;;;17.10;91.50;;;;;;5434247;26;20007;-67
2024/04/14 05:21:01;;;;;;;2.03;0.40;;;17.10;91.50;;;;;;5434724;26;20093;-65
2024/04/14 05:23:27;;;;;;;0.98;0.20;;;17.10;91.30;;;;;;5439695;26;19999;-67
2024/04/14 05:25:52;;;;;;;3.25;0.25;;;17.10;91.00;;;;;;5443021;26;20007;-67
2024/04/14 05:28:18;;;;;;;1.95;0.30;;;17.20;90.90;;;;;;5431624;26;20432;-66
2024/04/14 05:30:45;;;;;;;1.05;0.30;;;17.10;90.50;;;;;;5444601;26;20390;-67
2024/04/14 05:33:11;;;;;;;1.95;0.32;;;17.10;89.10;;;;;;5434743;26;19995;-67
2024/04/14 05:35:36;;;;;;;4.10;0.30;;;17.20;88.00;;;;;;5434772;26;20018;-67
2024/04/14 05:38:02;;;;;;;2.22;0.25;;;17.20;87.20;;;;;;5442993;26;20028;-67
2024/04/14 05:40:27;;;;;;;0.68;0.20;;;17.20;85.80;;;;;;5440411;26;20021;-66
2024/04/14 05:42:53;;;;;;;0.35;0.10;;;17.30;85.00;;;;;;5450132;26;20018;-66
2024/04/14 05:45:23;;;;;;;0.35;0.15;;;17.30;84.20;;;;;;5419829;26;20011;-66
2024/04/14 05:47:49;;;;;;;1.05;0.30;;;17.40;83.00;;;;;;5443642;26;19999;-67
2024/04/14 05:50:14;;;;;;;0.50;0.20;;;17.40;82.40;;;;;;5402963;26;20019;-67
2024/04/14 05:52:40;;;;;;;1.67;0.20;;;17.50;82.50;;;;;;5441921;26;19999;-67
2024/04/14 05:55:06;;;;;;;2.90;0.30;;;17.60;82.30;;;;;;5445901;26;20441;-68
2024/04/14 05:57:31;;;;;;;2.60;0.40;;;17.70;82.20;;;;;;5450655;26;19999;-67
2024/04/14 05:59:57;;;;;;;1.33;0.30;;;17.70;82.20;;;;;;5434026;26;20007;-66
2024/04/14 06:02:22;;;;;;;6.55;0.52;;;17.80;82.00;;;;;;5435764;26;20003;-66
2024/04/14 06:04:49;;;;;;;3.80;0.35;;;17.80;82.10;;;;;;5400900;26;20034;-65
2024/04/14 06:07:15;;;;;;;1.40;0.20;;;17.80;82.00;;;;;;5415667;26;20009;-67
2024/04/14 06:09:41;;;;;;;3.92;0.30;;;17.80;81.20;;;;;;5436757;26;19994;-68
2024/04/14 06:12:13;;;;;;;2.08;0.30;;;17.90;81.80;;;;;;5442411;26;20002;-67
2024/04/14 06:14:38;;;;;;;2.83;0.30;;;18.00;81.30;;;;;;5435071;26;19998;-67
2024/04/14 06:17:04;;;;;;;1.45;0.30;;;18.00;81.20;;;;;;5408576;26;20461;-65
2024/04/14 06:19:29;;;;;;;5.25;0.40;;;18.10;80.10;;;;;;5421695;26;20376;-67
2024/04/14 06:21:55;;;;;;;3.53;0.30;;;18.10;79.40;;;;;;5439637;26;20002;-66
2024/04/14 06:24:21;;;;;;;1.17;0.13;;;18.20;79.00;;;;;;5387307;26;20498;-66
2024/04/14 06:26:46;;;;;;;3.08;0.25;;;18.20;78.70;;;;;;5429031;26;20435;-66
2024/04/14 06:29:12;;;;;;;1.52;0.30;;;18.30;79.10;;;;;;5433456;26;19998;-67
2024/04/14 06:31:37;;;;;;;1.45;0.20;;;18.30;78.80;;;;;;5433190;26;20456;-66
2024/04/14 06:34:03;;;;;;;2.10;0.30;;;18.40;78.20;;;;;;5435656;26;20013;-66
2024/04/14 06:36:28;;;;;;;2.25;0.30;;;18.50;76.80;;;;;;5450865;26;20013;-65
2024/04/14 06:38:54;;;;;;;0.90;0.13;;;18.50;76.50;;;;;;5440130;26;20006;-65
2024/04/14 06:41:20;;;;;;;1.92;0.08;;;18.50;76.40;;;;;;5440463;26;20450;-67
2024/04/14 06:43:45;;;;;;;0.85;0.15;;;18.60;76.70;;;;;;5449081;26;20457;-67
2024/04/14 06:46:11;;;;;;;1.05;0.20;;;18.60;76.40;;;;;;5448295;26;19995;-67
2024/04/14 06:48:36;;;;;;;1.63;0.10;;;18.60;75.50;;;;;;5448949;26;20005;-66
2024/04/14 06:51:02;;;;;;;3.08;0.20;;;18.60;75.00;;;;;;5403583;26;20045;-67
2024/04/14 06:53:27;;;;;;;1.60;0.20;;;18.50;74.10;;;;;;5440423;26;20010;-67
2024/04/14 06:55:55;;;;;;;0.90;0.20;;;18.60;75.10;;;;;;5438063;26;20009;-67
2024/04/14 06:58:20;;;;;;;1.88;0.20;;;18.60;74.60;;;;;;5448363;26;20046;-67
2024/04/14 07:00:46;;;;;;;1.80;0.25;;;18.70;74.40;;;;;;5444238;26;19998;-66
2024/04/14 07:03:12;;;;;;;1.75;0.30;;;18.70;73.00;;;;;;5439056;26;20337;-66
2024/04/14 07:05:37;;;;;;;1.02;0.20;;;18.70;72.80;;;;;;5407483;26;19996;-65
2024/04/14 07:08:04;;;;;;;1.58;0.20;;;18.80;72.30;;;;;;5388976;26;20055;-67
2024/04/14 07:10:29;;;;;;;0.98;0.20;;;18.80;72.20;;;;;;5433040;26;20006;-66
2024/04/14 07:13:02;;;;;;;1.75;0.20;;;18.90;73.00;;;;;;5445111;26;20013;-67
2024/04/14 07:15:27;;;;;;;0.68;0.20;;;19.00;72.70;;;;;;5435328;26;20006;-66
2024/04/14 07:17:53;;;;;;;2.40;0.30;;;19.10;72.30;;;;;;5444668;26;20286;-65
2024/04/14 07:20:20;;;;;;;2.90;0.30;;;19.30;72.80;;;;;;5444438;26;20027;-67
2024/04/14 07:22:46;;;;;;;2.55;0.38;;;19.40;73.20;;;;;;5399999;26;20531;-67
2024/04/14 07:25:11;;;;;;;1.33;0.32;;;19.50;71.60;;;;;;5410402;26;20012;-66
2024/04/14 07:27:37;;;;;;;1.33;0.30;;;19.60;70.80;;;;;;5424975;26;19999;-66
2024/04/14 07:30:04;;;;;;;2.92;0.30;;;19.60;69.80;;;;;;5433042;26;19999;-65
2024/04/14 07:32:36;;;;;;;2.13;0.25;;;19.70;71.00;;;;;;5431688;26;20002;-65
2024/04/14 07:35:01;;;;;;;1.35;0.30;;;19.70;70.20;;;;;;5433242;26;20016;-65
2024/04/14 07:37:27;;;;;;;2.10;0.20;;;19.70;69.60;;;;;;5398371;26;20028;-65
2024/04/14 07:39:52;;;;;;;1.73;0.20;;;19.60;70.00;;;;;;5420618;26;20007;-66
2024/04/14 07:42:18;;;;;;;1.10;0.17;;;19.60;70.60;;;;;;5432233;26;20433;-65
2024/04/14 07:44:43;;;;;;;1.08;0.15;;;19.60;71.40;;;;;;5434499;26;20052;-66
2024/04/14 07:47:09;;;;;;;0.45;0.10;;;19.60;70.10;;;;;;5428592;26;20214;-65
2024/04/14 07:49:36;;;;;;;0.95;0.20;;;19.60;70.20;;;;;;5422552;26;20010;-67
2024/04/14 07:52:03;;;;;;;2.13;0.30;;;19.70;70.30;;;;;;5416333;26;20079;-66
2024/04/14 07:54:28;;;;;;;2.58;0.40;;;19.70;70.30;;;;;;5441294;26;20006;-65
2024/04/14 07:56:54;;;;;;;2.03;0.30;;;19.80;71.50;;;;;;5412075;26;20095;-66
2024/04/14 07:59:20;;;;;;;2.83;0.22;;;19.80;70.20;;;;;;5434252;26;19995;-66
2024/04/14 08:01:45;;;;;;;2.25;0.30;;;19.70;70.00;;;;;;5433869;26;20013;-66
2024/04/14 08:04:11;;;;;;;1.92;0.30;;;19.70;70.30;;;;;;5446199;26;19999;-67
2024/04/14 08:06:36;;;;;;;1.85;0.30;;;19.80;69.80;;;;;;5390468;26;20360;-66
2024/04/14 08:09:02;;;;;;;1.50;0.30;;;19.80;70.30;;;;;;5433048;26;20013;-67
2024/04/14 08:11:28;;;;;;;4.43;0.20;;;19.90;70.20;;;;;;5446823;26;19997;-65
2024/04/14 08:14:00;;;;;;;2.05;0.25;;;19.90;70.20;;;;;;5443533;26;20104;-67
2024/04/14 08:16:26;;;;;;;1.80;0.20;;;20.00;70.60;;;;;;5445919;26;20530;-67
2024/04/14 08:18:51;;;;;;;3.38;0.32;;;20.00;69.70;;;;;;5439184;26;19990;-66
2024/04/14 08:21:18;;;;;;;1.52;0.20;;;20.00;69.90;;;;;;5445659;26;20006;-66
2024/04/14 08:23:44;;;;;;;2.25;0.30;;;20.10;69.30;;;;;;5439909;26;20431;-67
2024/04/14 08:26:09;;;;;;;0.60;0.20;;;20.20;69.40;;;;;;5435751;26;19995;-65
2024/04/14 08:28:35;;;;;;;1.27;0.20;;;20.20;70.00;;;;;;5446552;26;19999;-68
2024/04/14 08:31:01;;;;;;;2.25;0.30;;;20.20;69.90;;;;;;5453979;26;20009;-66
2024/04/14 08:33:26;;;;;;;1.98;0.30;;;20.20;69.70;;;;;;5434883;26;20013;-67
2024/04/14 08:35:52;;;;;;;2.63;0.30;;;20.30;69.80;;;;;;5448360;26;20134;-66
2024/04/14 08:38:17;;;;;;;1.60;0.20;;;20.40;69.80;;;;;;5431486;26;20013;-66
2024/04/14 08:40:53;;;;;;;4.00;0.30;;;20.50;69.20;;;;;;5444502;26;20090;-66
2024/04/14 08:43:20;;;;;;;3.58;0.40;;;20.50;68.50;;;;;;5434472;26;20003;-66
2024/04/14 08:45:47;;;;;;;1.98;0.28;;;20.50;68.10;;;;;;5425808;26;20124;-66
2024/04/14 08:48:14;;;;;;;1.48;0.22;;;20.60;69.00;;;;;;5429196;26;20018;-66
2024/04/14 08:50:42;;;;;;;3.28;0.40;;;20.50;68.40;;;;;;5430654;26;20456;-66
2024/04/14 08:53:09;;;;;;;5.90;0.40;;;20.60;68.00;;;;;;5433036;26;19999;-66
2024/04/14 08:55:36;;;;;;;1.15;0.17;;;20.60;68.00;;;;;;5429073;26;20382;-65
2024/04/14 08:58:04;;;;;;;1.38;0.30;;;20.70;68.50;;;;;;5436042;26;20003;-66
2024/04/14 09:00:31;;;;;;;2.38;0.25;;;20.80;68.50;;;;;;5398154;26;20007;-67
2024/04/14 09:02:57;;;;;;;1.58;0.30;;;20.80;66.80;;;;;;5439837;26;20444;-67
2024/04/14 09:05:23;;;;;;;2.42;0.30;;;20.80;67.80;;;;;;5436849;26;20010;-67
2024/04/14 09:07:57;;;;;;;2.72;0.38;;;20.70;67.70;;;;;;5436240;26;19999;-66
2024/04/14 09:10:23;;;;;;;1.40;0.28;;;20.80;67.50;;;;;;5436724;26;19995;-66
2024/04/14 09:12:49;;;;;;;2.85;0.20;;;20.90;69.00;;;;;;5425483;26;19999;-66
2024/04/14 09:15:14;;;;;;;5.90;0.43;;;21.00;67.80;;;;;;5419039;26;20012;-66
2024/04/14 09:17:40;;;;;;;0.52;0.10;;;21.10;66.30;;;;;;5433713;26;20484;-65
2024/04/14 09:20:06;;;;;;;1.35;0.30;;;21.00;67.60;;;;;;5440191;26;20014;-65
2024/04/14 09:22:32;;;;;;;3.33;0.40;;;21.10;68.50;;;;;;5434661;26;20010;-65
2024/04/14 09:24:58;;;;;;;2.97;0.32;;;21.20;66.80;;;;;;5439405;26;20066;-66
2024/04/14 09:27:24;;;;;;;1.05;0.30;;;21.30;67.20;;;;;;5435766;26;20021;-66
2024/04/14 09:29:50;;;;;;;7.18;0.60;;;21.30;65.90;;;;;;5437727;26;20018;-66
2024/04/14 09:32:15;;;;;;;0.15;0.00;;;21.30;66.60;;;;;;5449760;26;20003;-67
2024/04/14 09:34:41;;;;;;;0.95;0.22;;;21.40;67.70;;;;;;5439687;26;20007;-65
2024/04/14 09:37:12;;;;;;;1.58;0.25;;;21.50;66.90;;;;;;5420619;26;20010;-65
2024/04/14 09:39:38;;;;;;;0.65;0.20;;;21.60;66.80;;;;;;5434615;26;20361;-68
2024/04/14 09:42:04;;;;;;;0.60;0.20;;;21.60;66.60;;;;;;5444417;26;19994;-68
2024/04/14 09:44:30;;;;;;;2.20;0.22;;;21.70;66.70;;;;;;5451636;26;20472;-67
2024/04/14 09:46:57;;;;;;;1.98;0.40;;;21.80;66.60;;;;;;5436129;26;20325;-66
2024/04/14 09:49:29;;;;;;;2.70;0.20;;;21.90;66.60;;;;;;5440372;26;20007;-66
2024/04/14 09:51:56;;;;;;;1.13;0.10;;;21.90;67.30;;;;;;5434481;26;21141;-66
2024/04/14 09:54:22;;;;;;;;;;;21.80;65.60;;;;;;5429585;26;20481;-65
2024/04/14 09:56:48;;;;;;;0.85;0.38;;;21.80;65.50;;;;;;5414103;26;19939;-66
2024/04/14 09:59:14;;;;;;;5.15;0.50;;;21.90;66.90;;;;;;5427288;26;20014;-67
2024/04/14 10:01:43;;;;;;;0.93;0.20;;;21.90;66.90;;;;;;5391803;26;21223;-67
2024/04/14 10:04:10;;;;;;;1.50;0.38;;;21.90;67.30;;;;;;5374856;26;19996;-67
2024/04/14 10:06:43;;;;;;;1.17;0.25;;;22.00;66.70;;;;;;5425910;26;19999;-67
2024/04/14 10:09:12;;;;;;;0.68;0.10;;;22.10;68.00;;;;;;5432363;26;20034;-66
2024/04/14 10:11:38;;;;;;;1.13;0.20;;;22.10;67.40;;;;;;5435676;26;20007;-66
2024/04/14 10:14:05;;;;;;;0.98;0.20;;;22.10;66.30;;;;;;5419173;26;20485;-67
2024/04/14 10:16:30;;;;;;;;;;;22.10;67.40;;;;;;5380922;26;22637;-66
2024/04/14 10:19:03;;;;;;;2.35;0.30;;;22.10;66.90;;;;;;5392401;26;19932;-67
2024/04/14 10:21:29;;;;;;;1.33;0.22;;;22.10;68.20;;;;;;5427971;26;20003;-67
2024/04/14 10:23:56;;;;;;;0.90;0.10;;;22.20;67.80;;;;;;5445377;26;20430;-65
2024/04/14 10:26:22;;;;;;;1.20;0.10;;;22.20;67.50;;;;;;5424827;26;19995;-67
2024/04/14 10:28:57;;;;;;;2.55;0.40;;;22.30;66.30;;;;;;5434078;26;20003;-66
2024/04/14 10:31:35;;;;;;;1.05;0.30;;;22.30;66.30;;;;;;5401191;26;20476;-68
2024/04/14 10:34:09;;;;;;;0.80;0.17;;;22.40;67.00;;;;;;5414829;26;19995;-67
2024/04/14 10:36:36;;;;;;;2.80;0.30;;;22.50;65.80;;;;;;5375735;26;20006;-67
2024/04/14 10:39:04;;;;;;;1.17;0.20;;;22.40;66.20;;;;;;5362414;26;20017;-66
2024/04/14 10:41:30;;;;;;;2.40;0.40;;;22.40;66.40;;;;;;5371683;26;20018;-65
2024/04/14 10:43:56;;;;;;;1.65;0.17;;;22.50;66.50;;;;;;5426357;26;19994;-67
2024/04/14 10:46:22;;;;;;;0.35;0.10;;;22.50;65.80;;;;;;5421595;26;20002;-65
2024/04/14 10:48:48;;;;;;;0.52;0.20;;;22.60;64.80;;;;;;5435536;26;21658;-66
2024/04/14 10:51:13;;;;;;;1.67;0.20;;;22.60;65.00;;;;;;5429338;26;20001;-67
2024/04/14 10:53:39;;;;;;;1.33;0.25;;;22.70;64.50;;;;;;5429514;26;20003;-67
2024/04/14 10:56:05;;;;;;;1.23;0.20;;;22.90;64.40;;;;;;5430323;26;19991;-66
2024/04/14 10:58:33;;;;;;;1.85;0.38;;;22.90;63.80;;;;;;5417669;26;20015;-67
2024/04/14 11:01:00;;;;;;;3.72;0.45;;;23.00;64.20;;;;;;5426050;26;19998;-66
2024/04/14 11:03:26;;;;;;;2.30;0.52;;;23.20;64.30;;;;;;5425534;26;19999;-66
2024/04/14 11:05:52;;;;;;;1.75;0.20;;;23.30;64.40;;;;;;5420218;26;20003;-67
2024/04/14 11:08:19;;;;;;;2.55;0.40;;;23.50;65.50;;;;;;5425647;26;20006;-67
2024/04/14 11:10:46;;;;;;;1.55;0.30;;;23.60;64.50;;;;;;5422339;26;19995;-67
2024/04/14 11:13:16;;;;;;;1.98;0.40;;;23.80;64.80;;;;;;5418462;26;20067;-66
2024/04/14 11:15:45;;;;;;;2.05;0.40;;;23.80;63.00;;;;;;5425890;26;20017;-66
2024/04/14 11:18:11;;;;;;;2.30;0.20;;;23.80;66.00;;;;;;5397018;26;20411;-67
2024/04/14 11:20:49;;;;;;;1.17;0.22;;;23.80;64.10;;;;;;5425817;26;20027;-67
2024/04/14 11:23:14;;;;;;;0.65;0.05;;;23.90;63.20;;;;;;5436603;26;20043;-69
2024/04/14 11:25:40;;;;;;;0.57;0.20;;;23.90;63.50;;;;;;5430609;26;20002;-68
2024/04/14 11:28:06;;;;;;;1.23;0.30;;;23.90;64.20;;;;;;5440978;26;20373;-68
2024/04/14 11:30:32;;;;;;;2.25;0.20;;;23.90;63.00;;;;;;5427892;26;19999;-66
2024/04/14 11:32:58;;;;;;;3.15;0.35;;;24.00;62.40;;;;;;5434701;26;19991;-69
2024/04/14 11:35:25;;;;;;;0.95;0.20;;;24.00;62.30;;;;;;5435482;26;20641;-69
2024/04/14 11:37:53;;;;;;;2.30;0.10;;;24.10;62.30;;;;;;5437618;26;19999;-68
2024/04/14 11:40:21;;;;;;;1.15;0.20;;;24.20;62.30;;;;;;5385940;26;20008;-66
2024/04/14 11:42:47;;;;;;;2.08;0.30;;;24.30;62.30;;;;;;5408482;26;19995;-69
2024/04/14 11:45:13;;;;;;;2.85;0.32;;;24.30;61.20;;;;;;5423239;26;20018;-67
2024/04/14 11:47:39;;;;;;;2.20;0.30;;;24.40;61.70;;;;;;5429658;26;19995;-67
2024/04/14 11:50:05;;;;;;;2.42;0.30;;;24.30;61.80;;;;;;5427504;26;20515;-68
2024/04/14 11:52:31;;;;;;;1.27;0.20;;;24.40;61.00;;;;;;5430635;26;20006;-68
2024/04/14 11:54:56;;;;;;;2.30;0.35;;;24.30;61.70;;;;;;5428785;26;20047;-67
2024/04/14 11:57:22;;;;;;;0.52;0.10;;;24.40;62.70;;;;;;5426475;26;19990;-66
2024/04/14 11:59:51;;;;;;;1.75;0.20;;;24.40;63.10;;;;;;5428835;26;19995;-66
2024/04/14 12:02:17;;;;;;;0.70;0.22;;;24.50;62.10;;;;;;5429620;26;20002;-66
2024/04/14 12:04:43;;;;;;;5.78;0.32;;;24.50;61.80;;;;;;5439453;26;20018;-69
2024/04/14 12:07:08;;;;;;;1.55;0.40;;;24.60;62.10;;;;;;5426132;26;20018;-67
2024/04/14 12:09:41;;;;;;;0.75;0.20;;;24.70;62.40;;;;;;5432530;26;20043;-68
2024/04/14 12:12:06;;;;;;;0.55;0.10;;;24.80;62.10;;;;;;5408501;26;19999;-67
2024/04/14 12:14:32;;;;;;;1.83;0.22;;;24.90;62.40;;;;;;5427410;26;20010;-67
2024/04/14 12:16:59;;;;;;;1.55;0.22;;;24.90;62.10;;;;;;5430463;26;20062;-67
2024/04/14 12:19:25;;;;;;;2.40;0.30;;;24.90;61.70;;;;;;5427917;26;20011;-67
2024/04/14 12:21:51;;;;;;;0.95;0.10;;;24.90;62.40;;;;;;5429658;26;20055;-67
2024/04/14 12:24:17;;;;;;;5.47;0.30;;;24.90;61.10;;;;;;5429560;26;20098;-67
2024/04/14 12:26:43;;;;;;;2.72;0.30;;;24.90;60.80;;;;;;5393748;26;20002;-67
2024/04/14 12:29:09;;;;;;;2.38;0.40;;;24.80;60.40;;;;;;5433995;26;19999;-65
2024/04/14 12:31:35;;;;;;;5.63;0.57;;;24.70;60.30;;;;;;5375393;26;20113;-66
2024/04/14 12:34:01;;;;;;;1.17;0.25;;;24.70;61.20;;;;;;5429964;26;20037;-68
2024/04/14 12:36:26;;;;;;;2.30;0.40;;;24.70;60.50;;;;;;5438890;26;19991;-68
2024/04/14 12:38:52;;;;;;;2.20;0.20;;;24.80;61.80;;;;;;5439949;26;20003;-67
2024/04/14 12:41:20;;;;;;;1.15;0.20;;;24.90;62.30;;;;;;5431108;26;20459;-66
2024/04/14 12:43:45;;;;;;;1.23;0.30;;;24.90;60.90;;;;;;5436457;26;20021;-67